KBFM/BFM METAR and TAF weather

Enter ICAO airport designator
Station Type Date Time Source
KBFM METAR 2020/09/18 15:53 UTC NOAA

KBFM 181553Z 35006KT 10SM CLR 26/22 A2998 RMK AO2 SLP151 T02610217


Station Type Date Time Source
KBFM Decoded METAR 2020/09/18 15:53 UTC NOAA

MOBILE DOWNTOWN AIRPORT, AL, United States (KBFM) 30-38N 88-04W 20M
Sep 18, 2020 - 11:53 AM EDT / 2020.09.18 1553 UTC
Wind: from the N (350 degrees) at 7 MPH (6 KT):0
Visibility: 10 mile(s):0
Sky conditions: clear
Temperature: 79.0 F (26.1 C)
Dew Point: 71.1 F (21.7 C)
Relative Humidity: 76%
Pressure (altimeter): 29.98 in. Hg (1015 hPa)
ob: KBFM 181553Z 35006KT 10SM CLR 26/22 A2998 RMK AO2 SLP151 T02610217
cycle: 16

Station Type Date Time Source
KBFM TAF 2020/09/18 12:33 UTC NOAA

TAF KBFM 181130Z 1812/1912 35008KT P6SM FEW025 SCT150

Example: see airport list